Airfield :
LOGIN :

Register | Disclaimer

   EN    FR    IT 

 










Legend :    VFR   Marginal VFR   IFR   Intensive IFR   Very Intensive IFR
Visi :
Ceiling :
>= 8 km
>= 3000ft
5 to 8 km
1000 to 3000 ft
1500m to 5 km
500 to 1000 ft
800 to 1500m
200 to 500 ft
< 800m
< 200 ft
Symbols :   Thunderstorms  Fog  Heavy snow  Heavy precipitations  Wind > 20 kt
SIGMETs :     Misc.  Thunderstorms  Icing  Turbulence  Mountain Waves  Volcanic Ashes







- Airport Elevation : 239 ft
- IATA code : VRN


LIPX - Villafranca Int. Verona

CURRENT METAR :
  • 220020Z 10003KT 9999 SCT060 23/16 Q1011

EXPIRED METARs :
  • 212350Z 10005KT 9999 SCT060 23/16 Q1011
  • 212320Z 10004KT 9999 FEW050 22/16 Q1011
  • 212250Z 14003KT 070V200 9999 FEW050 23/16 Q1011
  • 212220Z 10005KT 9999 FEW050 23/16 Q1011
  • 212150Z 07003KT 9999 FEW050 24/16 Q1011

TAF TAF LIPX
Valid from the 22 at 00:00 until the 22 at 09:00 UTC


212300Z 2200/2209 08005KT 9999 SCT050
PROB40
TEMPO 2200/2202 4000 TSRA
No reported NOTAMs for that airfield.



MET'MAP, your aeronautical weather chart ! - Copyright ORBIFLY December 2007 - Disclaimer

ORBIFLY MET'MAP TEAM :

Programming & Development : Alexandra Zaïnal
Concept & Development : Baudouin d'Aumeries
Co-Development & Prog : Marc-Olivier Méhu
Technical & hardware support : Manuel Goepfert

Contact : metmap@orbifly.com




SOURCES & CREDITS :

   NOAA